createdAt,value
2022-08-21T04:03:12.932Z,14.85
2022-08-21T04:05:42.593Z,14.89
2022-08-21T04:08:12.173Z,14.83
2022-08-21T04:10:42.117Z,14.76
2022-08-21T04:13:11.965Z,14.69
2022-08-21T04:15:41.839Z,14.68
2022-08-21T04:18:14.190Z,14.71
2022-08-21T04:20:45.377Z,14.52
2022-08-21T04:23:24.303Z,14.48
2022-08-21T04:25:54.208Z,14.59
2022-08-21T04:28:23.640Z,14.53
2022-08-21T04:30:58.845Z,14.51
2022-08-21T04:33:30.830Z,14.45
2022-08-21T04:36:00.184Z,14.46
2022-08-21T04:38:36.431Z,14.52
2022-08-21T04:41:08.038Z,14.62
2022-08-21T04:43:37.515Z,14.47
2022-08-21T04:46:06.905Z,14.54
2022-08-21T04:48:38.901Z,14.74
2022-08-21T04:51:11.901Z,14.95
2022-08-21T04:53:43.561Z,15.07
2022-08-21T04:56:15.147Z,15.17
2022-08-21T04:58:44.681Z,15.09
2022-08-21T05:01:17.161Z,15.01
2022-08-21T05:03:50.996Z,14.93
2022-08-21T05:06:21.086Z,14.97
2022-08-21T05:08:52.124Z,14.93
2022-08-21T05:11:31.509Z,14.85
2022-08-21T05:14:01.005Z,14.98
2022-08-21T05:16:37.368Z,15.00
2022-08-21T05:19:09.981Z,15.01
2022-08-21T05:21:41.357Z,14.97
2022-08-21T05:24:11.370Z,14.92
2022-08-21T05:26:46.243Z,14.78
2022-08-21T05:29:16.566Z,14.81
2022-08-21T05:31:46.125Z,14.88
2022-08-21T05:34:18.784Z,14.97
2022-08-21T05:36:48.604Z,15.09
2022-08-21T05:39:18.225Z,15.24
2022-08-21T05:41:48.738Z,15.24
2022-08-21T05:44:18.095Z,15.22
2022-08-21T05:46:49.821Z,15.30
2022-08-21T05:49:23.259Z,15.33
2022-08-21T05:51:52.608Z,15.42
2022-08-21T05:54:21.982Z,15.60
2022-08-21T05:56:51.335Z,15.71
2022-08-21T05:59:21.032Z,15.88
2022-08-21T06:01:51.199Z,16.01
2022-08-21T06:04:23.293Z,16.05
2022-08-21T06:06:52.632Z,16.13
2022-08-21T06:09:22.102Z,16.26
2022-08-21T06:11:51.496Z,16.43
2022-08-21T06:14:20.849Z,16.57
2022-08-21T06:16:50.217Z,16.57
2022-08-21T06:19:19.583Z,16.53
2022-08-21T06:21:51.523Z,16.65
2022-08-21T06:24:20.879Z,16.65
2022-08-21T06:26:50.256Z,16.75
2022-08-21T06:29:20.900Z,16.90
2022-08-21T06:31:50.809Z,17.08
2022-08-21T06:34:20.316Z,17.12
2022-08-21T06:36:52.274Z,17.12
2022-08-21T06:39:24.869Z,17.13
2022-08-21T06:41:56.098Z,17.25
2022-08-21T06:44:31.315Z,17.27
2022-08-21T06:47:00.663Z,17.34
2022-08-21T06:49:30.044Z,17.38
2022-08-21T06:52:01.975Z,17.46
2022-08-21T06:54:31.711Z,17.53
2022-08-21T06:57:01.022Z,17.66
2022-08-21T06:59:30.433Z,17.85
2022-08-21T07:01:59.870Z,18.05
2022-08-21T07:04:29.367Z,18.10
2022-08-21T07:06:58.709Z,18.24
2022-08-21T07:09:30.642Z,18.24
2022-08-21T07:12:00.227Z,18.25
2022-08-21T07:14:29.600Z,18.38
2022-08-21T07:16:58.952Z,18.44
2022-08-21T07:19:28.298Z,18.53
2022-08-21T07:22:01.337Z,18.69
2022-08-21T07:24:33.277Z,18.79
2022-08-21T07:27:04.383Z,18.90
2022-08-21T07:29:36.463Z,19.00
2022-08-21T07:32:05.926Z,19.06
2022-08-21T07:34:35.413Z,19.10
2022-08-21T07:37:06.349Z,19.21
2022-08-21T07:39:42.097Z,19.31
2022-08-21T07:42:11.582Z,19.45
2022-08-21T07:44:40.928Z,19.59
2022-08-21T07:47:10.261Z,19.74
2022-08-21T07:49:39.629Z,19.84
2022-08-21T07:52:09.017Z,19.98
2022-08-21T07:54:38.612Z,20.13
2022-08-21T07:57:10.651Z,20.36
2022-08-21T07:59:39.991Z,20.53
2022-08-21T08:02:09.320Z,20.64
2022-08-21T08:04:38.720Z,20.73
2022-08-21T08:07:20.358Z,20.76
2022-08-21T08:09:49.763Z,20.91
2022-08-21T08:12:21.951Z,21.09
2022-08-21T08:14:51.336Z,21.18
2022-08-21T08:17:23.202Z,21.28
2022-08-21T08:19:52.669Z,21.41
2022-08-21T08:22:24.827Z,21.54
2022-08-21T08:24:54.914Z,21.62
2022-08-21T08:27:26.834Z,21.74
2022-08-21T08:29:56.608Z,21.85
2022-08-21T08:32:26.194Z,21.92
2022-08-21T08:34:55.577Z,22.02
2022-08-21T08:37:25.827Z,22.06
2022-08-21T08:40:05.500Z,22.25
2022-08-21T08:42:38.357Z,22.40
2022-08-21T08:45:09.629Z,22.49
2022-08-21T08:47:41.335Z,22.51
2022-08-21T08:50:12.684Z,22.66
2022-08-21T08:52:46.378Z,22.68
2022-08-21T08:55:18.137Z,22.83
2022-08-21T08:57:51.303Z,22.94
2022-08-21T09:00:22.772Z,22.98
2022-08-21T09:02:55.616Z,23.13
2022-08-21T09:05:26.279Z,23.23
2022-08-21T09:08:01.653Z,23.27
2022-08-21T09:10:34.731Z,23.48
2022-08-21T09:13:09.565Z,23.61
2022-08-21T09:15:43.993Z,23.70
2022-08-21T09:18:23.216Z,23.82
2022-08-21T09:21:00.193Z,23.94
2022-08-21T09:23:33.433Z,23.94
2022-08-21T09:26:05.943Z,23.91
2022-08-21T09:28:38.987Z,23.94
2022-08-21T09:31:10.380Z,24.09
2022-08-21T09:33:39.808Z,24.12
2022-08-21T09:36:09.597Z,24.13
2022-08-21T09:38:40.437Z,23.99
2022-08-21T09:41:11.955Z,24.05
2022-08-21T09:43:43.981Z,24.15
2022-08-21T09:46:14.480Z,24.29
2022-08-21T09:48:48.887Z,24.44
2022-08-21T09:51:19.451Z,24.65
2022-08-21T09:53:51.455Z,24.48
2022-08-21T09:56:35.174Z,24.40
2022-08-21T09:59:16.028Z,24.60
2022-08-21T10:01:47.091Z,24.59
2022-08-21T10:04:16.869Z,24.60
2022-08-21T10:06:46.330Z,24.60
2022-08-21T10:09:21.017Z,24.61
2022-08-21T10:11:56.643Z,24.69
2022-08-21T10:14:39.978Z,24.76
2022-08-21T10:17:13.272Z,24.90
2022-08-21T10:19:47.395Z,24.92
2022-08-21T10:22:22.759Z,24.86
2022-08-21T10:24:56.253Z,24.80
2022-08-21T10:27:31.921Z,24.82
2022-08-21T10:30:05.581Z,24.93
2022-08-21T10:32:44.788Z,24.93
2022-08-21T10:35:16.676Z,25.02
2022-08-21T10:37:52.518Z,25.11
2022-08-21T10:40:25.944Z,25.17
2022-08-21T10:43:02.862Z,25.28
2022-08-21T10:45:42.069Z,25.42
2022-08-21T10:48:16.381Z,25.40
2022-08-21T10:50:48.368Z,25.48
2022-08-21T10:53:26.238Z,25.65
2022-08-21T10:55:58.983Z,25.64
2022-08-21T10:58:30.709Z,25.72
2022-08-21T11:01:07.617Z,25.93
2022-08-21T11:03:39.424Z,26.23
2022-08-21T11:06:12.681Z,26.26
2022-08-21T11:08:43.839Z,26.34
2022-08-21T11:11:19.939Z,26.37
2022-08-21T11:13:53.467Z,26.54
2022-08-21T11:16:29.879Z,26.57
2022-08-21T11:19:02.328Z,26.55
2022-08-21T11:21:35.887Z,26.49
2022-08-21T11:24:07.533Z,26.45
2022-08-21T11:26:39.493Z,26.43
2022-08-21T11:29:12.294Z,26.57
2022-08-21T11:31:51.616Z,26.79
2022-08-21T11:34:27.147Z,26.89
2022-08-21T11:37:02.819Z,26.79
2022-08-21T11:39:38.951Z,26.93
2022-08-21T11:42:26.229Z,27.00
2022-08-21T11:44:59.966Z,27.08
2022-08-21T11:47:36.888Z,26.93
2022-08-21T11:50:29.660Z,26.95
2022-08-21T11:53:03.623Z,26.86
2022-08-21T11:55:35.790Z,26.97
2022-08-21T11:58:10.648Z,26.88
2022-08-21T12:00:42.531Z,26.58
2022-08-21T12:03:16.916Z,26.50
2022-08-21T12:05:55.571Z,26.22
2022-08-21T12:08:31.462Z,26.19
2022-08-21T12:11:06.309Z,26.47
2022-08-21T12:13:40.381Z,26.66
2022-08-21T12:16:13.854Z,26.86
2022-08-21T12:18:46.740Z,27.05
2022-08-21T12:21:27.368Z,27.27
2022-08-21T12:24:04.789Z,27.49
2022-08-21T12:26:35.617Z,27.43
2022-08-21T12:29:11.143Z,27.54
2022-08-21T12:31:50.649Z,27.56
2022-08-21T12:34:23.891Z,27.50
2022-08-21T12:36:57.031Z,27.47
2022-08-21T12:39:27.716Z,27.72
2022-08-21T12:42:01.978Z,27.89
2022-08-21T12:44:35.917Z,27.96
2022-08-21T12:47:06.796Z,27.91
2022-08-21T12:49:40.822Z,27.87
2022-08-21T12:52:15.115Z,27.92
2022-08-21T12:54:45.648Z,27.92
2022-08-21T12:57:22.510Z,27.98
2022-08-21T12:59:55.727Z,28.08
2022-08-21T13:02:27.315Z,28.21
2022-08-21T13:04:59.869Z,28.29
2022-08-21T13:07:32.012Z,28.48
2022-08-21T13:10:03.873Z,28.54
2022-08-21T13:12:34.261Z,28.63
2022-08-21T13:15:08.356Z,28.78
2022-08-21T13:17:40.528Z,28.92
2022-08-21T13:20:13.874Z,28.93
2022-08-21T13:22:47.396Z,28.57
2022-08-21T13:25:17.672Z,28.74
2022-08-21T13:27:49.020Z,28.67
2022-08-21T13:30:23.197Z,28.52
2022-08-21T13:32:55.172Z,28.36
2022-08-21T13:35:31.822Z,28.23
2022-08-21T13:38:03.279Z,28.28
2022-08-21T13:40:46.208Z,28.47
2022-08-21T13:43:19.959Z,28.52
2022-08-21T13:45:52.180Z,28.71
2022-08-21T13:48:22.087Z,28.86
2022-08-21T13:50:54.513Z,28.91
2022-08-21T13:53:25.458Z,28.97
2022-08-21T13:55:59.956Z,29.11
2022-08-21T13:58:31.142Z,29.25
2022-08-21T14:01:01.662Z,29.43
2022-08-21T14:03:36.278Z,29.59
2022-08-21T14:06:14.749Z,29.69
2022-08-21T14:08:44.724Z,29.82
2022-08-21T14:11:15.470Z,29.88
2022-08-21T14:13:46.130Z,29.90
2022-08-21T14:16:18.295Z,29.95
2022-08-21T14:18:52.804Z,29.82
2022-08-21T14:21:33.300Z,29.54
2022-08-21T14:24:03.744Z,29.26
2022-08-21T14:26:33.395Z,29.31
2022-08-21T14:29:09.637Z,29.50
2022-08-21T14:31:43.275Z,29.51
2022-08-21T14:34:19.315Z,29.42
2022-08-21T14:36:52.238Z,29.44
2022-08-21T14:39:21.739Z,29.55
2022-08-21T14:41:51.719Z,29.53
2022-08-21T14:44:21.805Z,29.46
2022-08-21T14:46:55.546Z,29.59
2022-08-21T14:49:27.391Z,29.65
2022-08-21T14:52:00.563Z,29.84
2022-08-21T14:54:31.632Z,29.99
2022-08-21T14:57:02.406Z,30.01
2022-08-21T14:59:32.958Z,30.10
2022-08-21T15:02:02.428Z,30.20
2022-08-21T15:04:31.759Z,30.30
2022-08-21T15:07:03.663Z,30.33
2022-08-21T15:09:33.059Z,30.16
2022-08-21T15:12:04.036Z,30.31
2022-08-21T15:14:34.758Z,30.38
2022-08-21T15:17:04.761Z,30.48
2022-08-21T15:19:34.190Z,30.46
2022-08-21T15:22:06.263Z,30.43
2022-08-21T15:24:44.999Z,30.40
2022-08-21T15:27:16.834Z,30.26
2022-08-21T15:29:46.233Z,30.13
2022-08-21T15:32:20.927Z,30.12
2022-08-21T15:34:50.369Z,29.99
2022-08-21T15:37:22.585Z,29.84
2022-08-21T15:39:54.173Z,30.02
2022-08-21T15:42:24.264Z,30.24
2022-08-21T15:44:53.825Z,30.38
2022-08-21T15:47:26.047Z,30.48
2022-08-21T15:49:55.446Z,30.49
2022-08-21T15:52:27.400Z,30.51
2022-08-21T15:54:56.833Z,30.52
2022-08-21T15:57:27.157Z,30.37
2022-08-21T15:59:58.204Z,30.27
2022-08-21T16:02:29.242Z,30.18
2022-08-21T16:04:59.272Z,30.33
2022-08-21T16:07:31.262Z,30.62
2022-08-21T16:10:00.752Z,30.74
2022-08-21T16:12:31.872Z,30.74
2022-08-21T16:15:01.465Z,30.84
2022-08-21T16:17:32.518Z,30.58
2022-08-21T16:20:03.545Z,30.51
2022-08-21T16:22:43.862Z,30.45
2022-08-21T16:25:15.010Z,30.31
2022-08-21T16:27:45.231Z,30.20
2022-08-21T16:30:15.505Z,30.19
2022-08-21T16:32:45.143Z,30.19
2022-08-21T16:35:16.094Z,30.53
2022-08-21T16:37:52.468Z,30.72
2022-08-21T16:40:23.251Z,30.78
2022-08-21T16:42:53.501Z,30.73
2022-08-21T16:45:23.371Z,30.62
2022-08-21T16:47:52.793Z,30.54
2022-08-21T16:50:25.851Z,30.46
2022-08-21T16:52:58.008Z,30.08
2022-08-21T16:55:27.587Z,29.83
2022-08-21T16:57:57.005Z,29.53
2022-08-21T17:00:26.393Z,29.47
2022-08-21T17:02:57.367Z,29.28
2022-08-21T17:05:26.912Z,29.18
2022-08-21T17:07:58.872Z,29.02
2022-08-21T17:10:28.337Z,28.87
2022-08-21T17:13:00.903Z,28.74
2022-08-21T17:15:32.359Z,28.68
2022-08-21T17:18:02.129Z,28.56
2022-08-21T17:20:31.499Z,28.50
2022-08-21T17:23:03.500Z,28.37
2022-08-21T17:25:33.548Z,28.25
2022-08-21T17:28:03.176Z,28.17
2022-08-21T17:30:32.555Z,28.08
2022-08-21T17:33:02.701Z,27.98
2022-08-21T17:35:32.135Z,27.92
2022-08-21T17:38:04.119Z,27.75
2022-08-21T17:40:36.705Z,27.72
2022-08-21T17:43:11.603Z,27.65
2022-08-21T17:45:42.910Z,27.63
2022-08-21T17:48:12.323Z,27.56
2022-08-21T17:50:42.337Z,27.43
2022-08-21T17:53:14.285Z,27.31
2022-08-21T17:55:44.363Z,27.25
2022-08-21T17:58:15.652Z,27.20
2022-08-21T18:00:45.627Z,27.16
2022-08-21T18:03:17.460Z,27.05
2022-08-21T18:05:47.261Z,26.95
2022-08-21T18:08:19.403Z,26.86
2022-08-21T18:10:50.367Z,26.80
2022-08-21T18:13:20.845Z,26.70
2022-08-21T18:15:52.810Z,26.61
2022-08-21T18:18:22.444Z,26.54
2022-08-21T18:20:53.104Z,26.46
2022-08-21T18:23:43.549Z,26.40
2022-08-21T18:26:16.357Z,26.30
2022-08-21T18:28:46.501Z,26.22
2022-08-21T18:31:16.339Z,26.13
2022-08-21T18:33:57.769Z,26.02
2022-08-21T18:36:29.332Z,25.94
2022-08-21T18:39:25.825Z,25.73
2022-08-21T18:41:51.897Z,25.60
2022-08-21T18:44:22.531Z,25.47
2022-08-21T18:46:54.409Z,25.37
2022-08-21T18:49:24.459Z,25.30
2022-08-21T18:51:53.941Z,25.13
2022-08-21T18:54:26.567Z,24.96
2022-08-21T18:56:56.419Z,24.86
2022-08-21T18:59:28.391Z,24.80
2022-08-21T19:01:58.936Z,24.59
2022-08-21T19:04:43.575Z,24.48
2022-08-21T19:07:14.274Z,24.41
2022-08-21T19:10:01.961Z,24.43
2022-08-21T19:12:36.971Z,24.34
2022-08-21T19:15:10.145Z,24.33
2022-08-21T19:17:39.852Z,24.28
2022-08-21T19:20:19.489Z,24.22
2022-08-21T19:25:51.746Z,24.01
2022-08-21T19:28:24.786Z,23.92
2022-08-21T19:30:57.882Z,23.93
2022-08-21T19:33:29.953Z,23.82
2022-08-21T19:35:59.561Z,23.79
2022-08-21T19:38:29.376Z,23.77
2022-08-21T19:41:01.655Z,23.64
2022-08-21T19:43:35.218Z,23.61
2022-08-21T19:46:05.767Z,23.59
2022-08-21T19:48:35.232Z,23.45
2022-08-21T19:51:05.006Z,23.42
2022-08-21T19:53:35.083Z,23.35
2022-08-21T19:56:07.184Z,23.29
2022-08-21T19:58:41.501Z,23.30
2022-08-21T20:01:16.879Z,23.23
2022-08-21T20:03:54.477Z,23.21
2022-08-21T20:06:25.243Z,23.04
2022-08-21T20:08:55.236Z,22.89
2022-08-21T20:11:31.526Z,22.88
2022-08-21T20:14:01.719Z,22.82
2022-08-21T20:16:31.669Z,22.79
2022-08-21T20:19:03.262Z,22.79
2022-08-21T20:21:43.546Z,22.73
2022-08-21T20:24:14.762Z,22.67
2022-08-21T20:26:49.526Z,22.68
2022-08-21T20:29:23.917Z,22.69
2022-08-21T20:31:54.111Z,22.72
2022-08-21T20:34:25.513Z,22.67
2022-08-21T20:36:55.088Z,22.63
2022-08-21T20:39:24.774Z,22.55
2022-08-21T20:41:57.646Z,22.51
2022-08-21T20:44:30.742Z,22.42
2022-08-21T20:47:01.475Z,22.37
2022-08-21T20:49:41.195Z,22.37
2022-08-21T20:52:10.909Z,22.38
2022-08-21T20:54:45.522Z,22.38
2022-08-21T20:57:21.911Z,22.36
2022-08-21T20:59:54.740Z,22.16
2022-08-21T21:02:29.724Z,22.02
2022-08-21T21:05:05.292Z,21.89
2022-08-21T21:07:37.997Z,21.80
2022-08-21T21:10:10.726Z,21.61
2022-08-21T21:12:48.824Z,21.46
2022-08-21T21:15:27.875Z,21.45
2022-08-21T21:18:03.463Z,21.56
2022-08-21T21:20:37.527Z,21.61
2022-08-21T21:23:14.121Z,21.59
2022-08-21T21:25:53.996Z,21.57
2022-08-21T21:28:29.197Z,21.59
2022-08-21T21:30:58.617Z,21.64
2022-08-21T21:33:33.513Z,21.71
2022-08-21T21:36:09.081Z,21.68
2022-08-21T21:38:51.933Z,21.50
2022-08-21T21:41:25.809Z,21.48
2022-08-21T21:44:07.388Z,21.52
2022-08-21T21:46:46.145Z,21.41
2022-08-21T21:49:32.997Z,21.34
2022-08-21T21:52:06.121Z,21.12
2022-08-21T21:55:00.424Z,21.16
2022-08-21T21:57:40.211Z,21.17
2022-08-21T22:00:14.280Z,21.22
2022-08-21T22:02:49.180Z,21.12
2022-08-21T22:05:24.331Z,21.03
2022-08-21T22:07:59.831Z,21.03
2022-08-21T22:10:33.725Z,21.03
2022-08-21T22:13:26.271Z,21.06
2022-08-21T22:15:58.944Z,21.05
2022-08-21T22:18:32.126Z,20.99
2022-08-21T22:21:05.339Z,20.97
2022-08-21T22:23:37.161Z,20.97
2022-08-21T22:26:09.660Z,21.01
2022-08-21T22:28:40.699Z,20.98
2022-08-21T22:31:18.104Z,20.94
2022-08-21T22:34:02.520Z,20.95
2022-08-21T22:36:33.543Z,20.96
2022-08-21T22:39:03.990Z,20.84
2022-08-21T22:41:34.825Z,20.68
2022-08-21T22:44:05.695Z,20.55
2022-08-21T22:46:39.189Z,20.51
2022-08-21T22:49:11.805Z,20.46
2022-08-21T22:51:43.337Z,20.49
2022-08-21T22:54:21.754Z,20.45
2022-08-21T22:56:59.858Z,20.42
2022-08-21T22:59:30.647Z,20.47
2022-08-21T23:02:04.523Z,20.44
2022-08-21T23:04:34.453Z,20.42
2022-08-21T23:07:06.095Z,20.37
2022-08-21T23:09:37.371Z,20.30
2022-08-21T23:14:58.347Z,20.23
2022-08-21T23:17:37.349Z,20.17
2022-08-21T23:20:10.335Z,20.11
2022-08-21T23:22:44.421Z,20.04
2022-08-21T23:25:29.819Z,19.98
2022-08-21T23:28:05.075Z,19.93
2022-08-21T23:30:42.762Z,19.88
2022-08-21T23:33:27.173Z,19.79
2022-08-21T23:36:15.843Z,19.71
2022-08-21T23:38:53.293Z,19.57
2022-08-21T23:41:34.493Z,19.61
2022-08-21T23:44:11.178Z,19.66
2022-08-21T23:46:55.277Z,19.81
2022-08-21T23:49:35.110Z,19.75
2022-08-21T23:52:12.597Z,19.70
2022-08-21T23:54:48.368Z,19.66
2022-08-21T23:57:31.358Z,19.73
